Time;durP1;ratioP1;P1;durP2;ratioP2;P2;SDS_P1;SDS_P2;PMS_P1;PMS_P2;Temp;Humidity;BMP_temperature;BMP_pressure;BME280_temperature;BME280_humidity;BME280_pressure;Samples;Min_cycle;Max_cycle;Signal;HPM_P1;HPM_P2
2022/06/06 00:01:08;0.00;0.00;0.62;0.00;0.00;0.62;3.90;3.60;;;26.60;38.00;;;;;;2276500;60;20361;-58
2022/06/06 00:03:54;0.00;0.00;0.62;0.00;0.00;0.62;4.13;3.73;;;26.60;37.10;;;;;;2275760;60;20469;-54
2022/06/06 00:06:40;0.00;0.00;0.62;0.00;0.00;0.62;3.63;3.33;;;26.60;37.60;;;;;;2276927;60;20937;-52
2022/06/06 00:09:26;0.00;0.00;0.62;0.00;0.00;0.62;3.17;2.87;;;26.60;36.80;;;;;;2276956;60;20357;-60
2022/06/06 00:12:11;0.00;0.00;0.62;0.00;0.00;0.62;4.03;3.63;;;26.70;36.70;;;;;;2275742;60;20368;-55
2022/06/06 00:14:58;0.00;0.00;0.62;0.00;0.00;0.62;3.03;2.73;;;26.70;36.60;;;;;;2274008;60;20374;-56
2022/06/06 00:17:44;0.00;0.00;0.62;0.00;0.00;0.62;3.97;2.97;;;26.70;36.50;;;;;;2272091;61;20398;-51
2022/06/06 00:20:30;0.00;0.00;0.62;0.00;0.00;0.62;3.27;2.97;;;26.70;36.50;;;;;;2272226;61;20386;-50
2022/06/06 00:23:15;0.00;0.00;0.62;0.00;0.00;0.62;2.83;2.23;;;26.70;36.50;;;;;;2273068;61;20402;-60
2022/06/06 00:26:01;0.00;0.00;0.62;0.00;0.00;0.62;3.03;2.83;;;26.70;36.50;;;;;;2271109;61;20381;-56
2022/06/06 00:28:49;0.00;0.00;0.62;0.00;0.00;0.62;3.77;3.47;;;26.70;36.40;;;;;;2272467;61;20446;-57
2022/06/06 00:34:52;0.00;0.00;0.62;0.00;0.00;0.62;3.13;2.93;;;26.60;36.30;;;;;;2271862;61;20358;-53
2022/06/06 00:37:39;0.00;0.00;0.62;0.00;0.00;0.62;2.80;2.60;;;26.60;36.30;;;;;;2272374;61;20370;-56
2022/06/06 00:40:26;0.00;0.00;0.62;0.00;0.00;0.62;4.33;3.47;;;26.60;36.20;;;;;;2271372;61;20408;-56
2022/06/06 00:43:11;0.00;0.00;0.62;0.00;0.00;0.62;4.13;3.37;;;26.60;36.30;;;;;;2272379;61;20358;-57
2022/06/06 00:45:58;0.00;0.00;0.62;0.00;0.00;0.62;3.40;3.03;;;26.60;36.30;;;;;;2272526;61;20386;-56
2022/06/06 00:48:43;0.00;0.00;0.62;0.00;0.00;0.62;3.40;3.10;;;26.50;36.20;;;;;;2271566;61;20935;-52
2022/06/06 00:51:30;0.00;0.00;0.62;0.00;0.00;0.62;4.00;3.70;;;26.50;36.30;;;;;;2272309;61;20408;-58
2022/06/06 00:54:15;0.00;0.00;0.62;0.00;0.00;0.62;3.30;3.00;;;26.40;36.30;;;;;;2272710;61;20389;-56
2022/06/06 00:57:05;0.00;0.00;0.62;0.00;0.00;0.62;5.17;3.70;;;26.40;36.20;;;;;;2272828;60;20495;-55
2022/06/06 00:59:49;0.00;0.00;0.62;0.00;0.00;0.62;4.67;3.60;;;26.40;36.30;;;;;;2273367;60;20362;-54
2022/06/06 01:02:35;0.00;0.00;0.62;0.00;0.00;0.62;4.70;4.20;;;26.30;36.10;;;;;;2272093;60;20353;-54
2022/06/06 01:05:22;0.00;0.00;0.62;0.00;0.00;0.62;3.80;3.50;;;26.30;36.10;;;;;;2273028;60;20361;-49
2022/06/06 01:08:11;0.00;0.00;0.62;0.00;0.00;0.62;3.50;3.20;;;26.30;36.10;;;;;;2273287;60;20354;-51
2022/06/06 01:10:56;0.00;0.00;0.62;0.00;0.00;0.62;4.53;4.13;;;26.30;36.00;;;;;;2271662;60;20370;-55
2022/06/06 01:13:43;0.00;0.00;0.62;0.00;0.00;0.62;4.40;3.97;;;26.30;36.00;;;;;;2272974;61;20957;-57
2022/06/06 01:16:43;0.00;0.00;0.62;0.00;0.00;0.62;4.60;4.20;;;26.30;35.90;;;;;;2272478;61;20381;-57
2022/06/06 01:19:58;0.00;0.00;0.62;0.00;0.00;0.62;4.33;3.93;;;26.20;35.80;;;;;;2272533;61;20932;-57
2022/06/06 01:23:23;0.00;0.00;0.62;0.00;0.00;0.62;3.77;3.47;;;26.20;35.70;;;;;;2272724;61;20367;-55
2022/06/06 01:26:41;0.00;0.00;0.62;0.00;0.00;0.62;4.77;4.37;;;26.20;35.70;;;;;;2271855;61;20417;-57
2022/06/06 01:29:34;0.00;0.00;0.62;0.00;0.00;0.62;4.17;3.80;;;26.20;35.60;;;;;;2273358;61;20897;-53
2022/06/06 01:32:21;0.00;0.00;0.62;0.00;0.00;0.62;4.87;4.47;;;26.20;35.60;;;;;;2271058;61;20367;-55
2022/06/06 01:35:08;0.00;0.00;0.62;0.00;0.00;0.62;5.03;4.50;;;26.20;35.60;;;;;;2272878;61;20788;-58
2022/06/06 01:37:53;0.00;0.00;0.62;0.00;0.00;0.62;3.87;3.57;;;26.20;35.60;;;;;;2272641;61;20390;-55
2022/06/06 01:40:54;0.00;0.00;0.62;0.00;0.00;0.62;5.20;4.70;;;26.10;35.50;;;;;;2271262;61;20803;-56
2022/06/06 01:43:47;0.00;0.00;0.62;0.00;0.00;0.62;5.03;4.37;;;26.10;35.50;;;;;;2273187;61;20488;-54
2022/06/06 01:46:36;0.00;0.00;0.62;0.00;0.00;0.62;5.50;5.10;;;26.10;35.50;;;;;;2272157;61;20773;-54
2022/06/06 01:49:23;0.00;0.00;0.62;0.00;0.00;0.62;4.20;3.90;;;26.10;35.60;;;;;;2272799;61;20374;-55
2022/06/06 01:52:12;0.00;0.00;0.62;0.00;0.00;0.62;4.33;4.03;;;26.00;35.40;;;;;;2272408;61;20374;-54
2022/06/06 01:54:58;0.00;0.00;0.62;0.00;0.00;0.62;6.30;4.83;;;26.00;35.50;;;;;;2271754;61;20381;-54
2022/06/06 01:57:43;0.00;0.00;0.62;0.00;0.00;0.62;5.30;4.87;;;26.00;35.50;;;;;;2272965;61;20878;-57
2022/06/06 02:00:29;0.00;0.00;0.62;0.00;0.00;0.62;5.43;5.03;;;26.00;35.60;;;;;;2272571;61;20362;-51
2022/06/06 02:03:16;0.00;0.00;0.62;0.00;0.00;0.62;7.70;5.53;;;26.00;35.50;;;;;;2272263;60;20381;-55
2022/06/06 02:06:03;0.00;0.00;0.62;0.00;0.00;0.62;5.83;5.33;;;26.00;35.60;;;;;;2272838;61;20421;-55
2022/06/06 02:08:50;0.00;0.00;0.62;0.00;0.00;0.62;6.10;5.60;;;26.00;35.50;;;;;;2272184;61;20933;-51
2022/06/06 02:11:35;0.00;0.00;0.62;0.00;0.00;0.62;6.47;5.90;;;26.00;35.60;;;;;;2272454;61;20361;-57
2022/06/06 02:14:21;0.00;0.00;0.62;0.00;0.00;0.62;6.43;5.87;;;26.00;35.60;;;;;;2274639;60;20832;-55
2022/06/06 02:17:06;0.00;0.00;0.62;0.00;0.00;0.62;6.40;5.90;;;26.00;35.60;;;;;;2275421;60;20385;-57
2022/06/06 02:19:52;0.00;0.00;0.62;0.00;0.00;0.62;6.97;6.37;;;25.90;35.50;;;;;;2277244;60;20366;-54
2022/06/06 02:22:37;0.00;0.00;0.62;0.00;0.00;0.62;8.20;7.43;;;25.90;35.40;;;;;;2276545;60;20938;-52
2022/06/06 02:25:23;0.00;0.00;0.62;0.00;0.00;0.62;8.13;7.43;;;25.90;35.40;;;;;;2276213;60;20382;-61
2022/06/06 02:28:08;0.00;0.00;0.62;0.00;0.00;0.62;8.10;7.40;;;25.90;35.50;;;;;;2277091;60;20357;-52
2022/06/06 02:30:53;0.00;0.00;0.62;0.00;0.00;0.62;7.43;6.83;;;25.90;35.50;;;;;;2276005;60;20461;-51
2022/06/06 02:33:38;0.00;0.00;0.62;0.00;0.00;0.62;8.80;7.90;;;25.80;35.50;;;;;;2276355;60;20423;-52
2022/06/06 02:36:24;0.00;0.00;0.62;0.00;0.00;0.62;9.07;8.27;;;25.80;35.60;;;;;;2276661;60;20490;-51
2022/06/06 02:39:08;0.00;0.00;0.62;0.00;0.00;0.62;9.83;8.93;;;25.80;35.60;;;;;;2276036;60;20395;-49
2022/06/06 02:41:53;0.00;0.00;0.62;0.00;0.00;0.62;12.60;9.80;;;25.80;35.70;;;;;;2276655;60;20365;-52
2022/06/06 02:44:38;0.00;0.00;0.62;0.00;0.00;0.62;11.00;10.03;;;25.70;35.70;;;;;;2276969;60;20483;-53
2022/06/06 02:47:23;0.00;0.00;0.62;0.00;0.00;0.62;10.10;9.20;;;25.70;35.70;;;;;;2275759;60;20385;-54
2022/06/06 02:50:09;0.00;0.00;0.62;0.00;0.00;0.62;11.20;10.10;;;25.70;35.80;;;;;;2276663;60;20364;-53
2022/06/06 02:52:56;0.00;0.00;0.62;0.00;0.00;0.62;12.20;11.07;;;25.70;35.80;;;;;;2276337;60;20985;-57
2022/06/06 02:55:41;0.00;0.00;0.62;0.00;0.00;0.62;12.70;11.50;;;25.60;35.80;;;;;;2276524;60;20393;-50
2022/06/06 02:58:27;0.00;0.00;0.62;0.00;0.00;0.62;12.13;11.00;;;25.60;36.00;;;;;;2276586;60;20404;-54
2022/06/06 03:01:12;0.00;0.00;0.62;0.00;0.00;0.62;12.03;11.03;;;25.50;36.10;;;;;;2275599;60;20369;-55
2022/06/06 03:03:58;0.00;0.00;0.62;0.00;0.00;0.62;13.10;11.70;;;25.50;36.10;;;;;;2276497;60;20442;-50
2022/06/06 03:06:55;0.00;0.00;0.62;0.00;0.00;0.62;12.40;11.10;;;25.50;36.30;;;;;;2277122;60;20794;-58
2022/06/06 03:09:56;0.00;0.00;0.62;0.00;0.00;0.62;12.40;11.10;;;25.40;36.40;;;;;;2275673;60;20408;-54
2022/06/06 03:13:16;0.00;0.00;0.62;0.00;0.00;0.62;11.10;10.00;;;25.40;36.50;;;;;;2277100;60;20381;-55
2022/06/06 03:23:20;0.00;0.00;0.62;0.00;0.00;0.62;11.80;10.70;;;25.30;36.70;;;;;;2268034;61;20359;-55
2022/06/06 03:26:20;0.00;0.00;0.62;0.00;0.00;0.62;12.07;10.97;;;25.30;36.70;;;;;;2268238;61;20440;-55
2022/06/06 03:29:22;0.00;0.00;0.62;0.00;0.00;0.62;12.70;11.40;;;25.20;36.70;;;;;;2268613;61;20813;-54
2022/06/06 03:32:18;0.00;0.00;0.62;0.00;0.00;0.62;12.40;11.10;;;25.20;36.90;;;;;;2267035;61;20367;-55
2022/06/06 03:35:18;0.00;0.00;0.62;0.00;0.00;0.62;10.53;9.53;;;25.20;37.00;;;;;;2268462;61;20413;-54
2022/06/06 03:38:11;0.00;0.00;0.62;0.00;0.00;0.62;11.20;10.13;;;25.20;37.20;;;;;;2267460;61;20822;-52
2022/06/06 03:41:06;0.00;0.00;0.62;0.00;0.00;0.62;12.50;11.30;;;25.20;37.20;;;;;;2268259;61;20494;-57
2022/06/06 03:44:03;0.00;0.00;0.62;0.00;0.00;0.62;10.93;9.80;;;25.20;37.20;;;;;;2268395;61;20413;-58
2022/06/06 03:46:56;0.00;0.00;0.62;0.00;0.00;0.62;11.17;10.10;;;25.20;37.20;;;;;;2267631;61;20432;-59
2022/06/06 03:49:53;0.00;0.00;0.62;0.00;0.00;0.62;10.33;9.23;;;25.10;37.20;;;;;;2268686;61;21018;-54
2022/06/06 03:52:46;0.00;0.00;0.62;0.00;0.00;0.62;11.23;10.20;;;25.10;37.20;;;;;;2267290;61;20374;-57
2022/06/06 03:55:45;0.00;0.00;0.62;0.00;0.00;0.62;10.63;9.63;;;25.10;37.10;;;;;;2268600;61;20417;-54
2022/06/06 03:58:33;0.00;0.00;0.62;0.00;0.00;0.62;11.00;10.00;;;25.10;37.10;;;;;;2268402;61;20787;-56
2022/06/06 04:01:22;0.00;0.00;0.62;0.00;0.00;0.62;11.40;10.20;;;25.10;37.20;;;;;;2267314;61;20378;-54
2022/06/06 04:04:07;0.00;0.00;0.62;0.00;0.00;0.62;11.70;9.60;;;25.10;38.00;;;;;;2268580;61;20492;-55
2022/06/06 04:06:57;0.00;0.00;0.62;0.00;0.00;0.62;11.50;10.30;;;25.20;37.20;;;;;;2267599;61;20393;-56
2022/06/06 04:09:42;0.00;0.00;0.62;0.00;0.00;0.62;11.60;10.40;;;25.20;37.10;;;;;;2268029;61;20409;-56
2022/06/06 04:12:44;0.00;0.00;0.62;0.00;0.00;0.62;11.17;10.17;;;25.20;37.10;;;;;;2268098;61;20363;-58
2022/06/06 04:15:40;0.00;0.00;0.62;0.00;0.00;0.62;13.07;10.60;;;25.20;37.00;;;;;;2274888;60;20368;-58
2022/06/06 04:18:41;0.00;0.00;0.62;0.00;0.00;0.62;12.00;10.80;;;25.20;36.90;;;;;;2276786;60;20750;-52
2022/06/06 04:21:38;0.00;0.00;0.62;0.00;0.00;0.62;13.57;11.80;;;25.20;36.90;;;;;;2275822;60;20862;-56
2022/06/06 04:24:40;0.00;0.00;0.62;0.00;0.00;0.62;14.77;13.23;;;25.20;36.90;;;;;;2276374;60;20953;-57
2022/06/06 04:27:36;0.00;0.00;0.62;0.00;0.00;0.62;12.50;11.30;;;25.20;37.00;;;;;;2276589;60;20415;-56
2022/06/06 04:30:35;0.00;0.00;0.62;0.00;0.00;0.62;13.07;11.80;;;25.20;36.80;;;;;;2275991;60;20820;-58
2022/06/06 04:33:23;0.00;0.00;0.62;0.00;0.00;0.62;12.50;11.20;;;25.20;36.80;;;;;;2277023;60;20962;-54
2022/06/06 04:36:14;0.00;0.00;0.62;0.00;0.00;0.62;12.60;11.30;;;25.20;36.70;;;;;;2277162;60;20376;-58
2022/06/06 04:39:07;0.00;0.00;0.62;0.00;0.00;0.62;13.57;11.30;;;25.20;36.70;;;;;;2276770;60;20369;-55
2022/06/06 04:41:57;0.00;0.00;0.62;0.00;0.00;0.62;14.93;13.17;;;25.20;36.60;;;;;;2276795;60;20816;-56
2022/06/06 04:44:52;0.00;0.00;0.62;0.00;0.00;0.62;13.27;11.87;;;25.20;36.50;;;;;;2276321;60;20759;-53
2022/06/06 04:47:39;0.00;0.00;0.62;0.00;0.00;0.62;14.73;12.00;;;25.20;36.50;;;;;;2276981;60;20785;-60
2022/06/06 04:50:25;0.00;0.00;0.62;0.00;0.00;0.62;13.23;11.23;;;25.20;36.40;;;;;;2276555;60;20899;-57
2022/06/06 04:53:17;0.00;0.00;0.62;0.00;0.00;0.62;14.30;11.50;;;25.20;36.40;;;;;;2276151;60;20437;-53
2022/06/06 04:56:02;0.00;0.00;0.62;0.00;0.00;0.62;12.47;11.00;;;25.10;36.30;;;;;;2277166;60;20422;-57
2022/06/06 04:58:50;0.00;0.00;0.62;0.00;0.00;0.62;12.43;10.93;;;25.10;36.10;;;;;;2276695;60;20415;-55
2022/06/06 05:01:35;0.00;0.00;0.62;0.00;0.00;0.62;13.33;11.93;;;25.10;36.10;;;;;;2276345;60;20353;-56
2022/06/06 05:04:20;0.00;0.00;0.62;0.00;0.00;0.62;14.17;10.90;;;25.10;35.90;;;;;;2277428;60;20407;-55
2022/06/06 05:07:30;0.00;0.00;0.62;0.00;0.00;0.62;15.17;10.30;;;25.10;35.90;;;;;;2276181;60;20399;-59
2022/06/06 05:10:37;0.00;0.00;0.62;0.00;0.00;0.62;10.33;8.83;;;25.10;35.80;;;;;;2277165;60;20897;-52
2022/06/06 05:14:13;0.00;0.00;0.62;0.00;0.00;0.62;11.57;9.30;;;25.10;35.80;;;;;;2276917;60;20861;-53
2022/06/06 05:17:24;0.00;0.00;0.62;0.00;0.00;0.62;11.80;9.60;;;25.10;35.70;;;;;;2255741;61;20518;-56
2022/06/06 05:20:26;0.00;0.00;0.62;0.00;0.00;0.62;11.10;9.70;;;25.10;35.70;;;;;;2268021;61;20448;-54
2022/06/06 05:24:04;0.00;0.00;0.62;0.00;0.00;0.62;12.50;9.47;;;25.10;35.80;;;;;;2267272;61;20890;-54
2022/06/06 05:27:07;0.00;0.00;0.62;0.00;0.00;0.62;12.67;9.10;;;25.00;35.70;;;;;;2268007;61;20459;-59
2022/06/06 05:30:04;0.00;0.00;0.62;0.00;0.00;0.62;11.20;9.93;;;25.00;35.70;;;;;;2263939;61;20401;-63
2022/06/06 05:33:05;0.00;0.00;0.62;0.00;0.00;0.62;11.63;9.77;;;25.00;36.40;;;;;;2267744;61;20363;-52
2022/06/06 05:36:25;0.00;0.00;0.62;0.00;0.00;0.62;11.07;9.73;;;25.00;35.70;;;;;;2267423;61;20383;-51
2022/06/06 05:39:30;0.00;0.00;0.62;0.00;0.00;0.62;11.53;10.30;;;25.00;35.80;;;;;;2267709;61;20363;-52
2022/06/06 05:42:34;0.00;0.00;0.62;0.00;0.00;0.62;10.40;8.80;;;25.00;35.80;;;;;;2267638;61;20411;-53
2022/06/06 05:45:32;0.00;0.00;0.62;0.00;0.00;0.62;10.50;8.97;;;24.90;35.60;;;;;;2266882;61;20477;-57
2022/06/06 05:48:33;0.00;0.00;0.62;0.00;0.00;0.62;11.70;10.50;;;24.90;35.70;;;;;;2268000;61;20379;-55
2022/06/06 05:51:33;0.00;0.00;0.62;0.00;0.00;0.62;12.50;9.17;;;24.90;35.70;;;;;;2266883;61;20443;-54
2022/06/06 05:54:41;0.00;0.00;0.62;0.00;0.00;0.62;9.90;8.40;;;24.90;35.70;;;;;;2273069;61;20526;-55
2022/06/06 05:58:01;0.00;0.00;0.62;0.00;0.00;0.62;12.27;9.17;;;24.90;36.40;;;;;;2273374;61;20782;-54
2022/06/06 06:01:05;0.00;0.00;0.62;0.00;0.00;0.62;8.83;7.90;;;24.90;36.30;;;;;;2272288;61;20366;-54
2022/06/06 06:04:21;0.00;0.00;0.62;0.00;0.00;0.62;10.33;8.57;;;24.80;35.60;;;;;;2273237;61;20354;-54
2022/06/06 06:07:18;0.00;0.00;0.62;0.00;0.00;0.62;9.00;7.87;;;24.80;35.60;;;;;;2272237;61;20485;-54
2022/06/06 06:10:09;0.00;0.00;0.62;0.00;0.00;0.62;10.47;8.10;;;24.80;35.60;;;;;;2273135;61;20365;-55
2022/06/06 06:13:25;0.00;0.00;0.62;0.00;0.00;0.62;8.47;7.43;;;24.80;35.60;;;;;;2272164;61;20970;-55
2022/06/06 06:16:13;0.00;0.00;0.62;0.00;0.00;0.62;8.23;7.30;;;24.80;35.50;;;;;;2269045;61;20762;-53
2022/06/06 06:19:08;0.00;0.00;0.62;0.00;0.00;0.62;9.50;8.07;;;24.80;35.50;;;;;;2269121;61;20745;-54
2022/06/06 06:21:56;0.00;0.00;0.62;0.00;0.00;0.62;10.17;8.60;;;24.80;35.60;;;;;;2266951;61;20374;-56
2022/06/06 06:24:43;0.00;0.00;0.62;0.00;0.00;0.62;10.63;9.10;;;24.80;35.60;;;;;;2268638;61;20763;-52
2022/06/06 06:27:31;0.00;0.00;0.62;0.00;0.00;0.62;10.47;8.57;;;24.80;35.60;;;;;;2268232;61;20433;-54
2022/06/06 06:30:17;0.00;0.00;0.62;0.00;0.00;0.62;12.93;10.07;;;24.80;35.60;;;;;;2268607;61;20363;-55
2022/06/06 06:33:24;0.00;0.00;0.62;0.00;0.00;0.62;12.97;10.90;;;24.70;35.60;;;;;;2268896;61;20383;-56
2022/06/06 06:36:29;0.00;0.00;0.62;0.00;0.00;0.62;14.87;12.40;;;24.70;35.70;;;;;;2267007;61;20378;-52
2022/06/06 06:40:00;0.00;0.00;0.62;0.00;0.00;0.62;13.13;10.97;;;24.70;35.70;;;;;;2268735;61;20486;-53
2022/06/06 06:43:07;0.00;0.00;0.62;0.00;0.00;0.62;13.77;12.37;;;24.70;35.70;;;;;;2267799;61;20416;-53
2022/06/06 06:46:00;0.00;0.00;0.62;0.00;0.00;0.62;15.13;12.90;;;24.70;35.70;;;;;;2269290;61;20421;-55
2022/06/06 06:48:48;0.00;0.00;0.62;0.00;0.00;0.62;15.93;14.23;;;24.70;35.90;;;;;;2268655;61;20950;-52
2022/06/06 06:51:43;0.00;0.00;0.62;0.00;0.00;0.62;14.90;12.90;;;24.70;36.00;;;;;;2267324;61;20367;-54
2022/06/06 06:54:50;0.00;0.00;0.62;0.00;0.00;0.62;15.97;12.57;;;24.70;36.00;;;;;;2268823;61;20395;-55
2022/06/06 06:58:02;0.00;0.00;0.62;0.00;0.00;0.62;15.77;12.53;;;24.70;35.90;;;;;;2268214;61;20464;-52
2022/06/06 07:00:52;0.00;0.00;0.62;0.00;0.00;0.62;11.60;10.50;;;24.70;35.80;;;;;;2268551;61;20391;-55
2022/06/06 07:10:24;0.00;0.00;0.62;0.00;0.00;0.62;15.20;11.43;;;24.70;35.70;;;;;;2268578;61;20402;-58
2022/06/06 07:13:33;0.00;0.00;0.62;0.00;0.00;0.62;11.57;10.47;;;24.70;35.70;;;;;;2267405;61;20383;-57
2022/06/06 07:16:22;0.00;0.00;0.62;0.00;0.00;0.62;10.93;9.83;;;24.70;35.60;;;;;;2267921;61;20379;-53
2022/06/06 07:19:14;0.00;0.00;0.62;0.00;0.00;0.62;9.77;8.77;;;24.70;35.60;;;;;;2268127;61;20396;-55
2022/06/06 07:22:02;0.00;0.00;0.62;0.00;0.00;0.62;9.93;8.93;;;24.70;35.60;;;;;;2267819;61;20393;-54
2022/06/06 07:24:57;0.00;0.00;0.62;0.00;0.00;0.62;8.40;7.60;;;24.70;35.50;;;;;;2268277;61;20359;-56
2022/06/06 07:27:41;0.00;0.00;0.62;0.00;0.00;0.62;10.50;8.47;;;24.70;35.50;;;;;;2267485;61;20363;-59
2022/06/06 07:30:29;0.00;0.00;0.62;0.00;0.00;0.62;9.00;8.20;;;24.80;35.50;;;;;;2268221;61;20342;-58
2022/06/06 07:33:42;0.00;0.00;0.62;0.00;0.00;0.62;9.80;8.80;;;24.80;35.50;;;;;;2268484;61;20394;-56
2022/06/06 07:36:41;0.00;0.00;0.62;0.00;0.00;0.62;8.80;8.00;;;24.80;35.50;;;;;;2268013;61;20387;-57
2022/06/06 07:39:43;0.00;0.00;0.62;0.00;0.00;0.62;10.33;8.43;;;24.80;35.40;;;;;;2268603;61;20405;-56
2022/06/06 07:42:48;0.00;0.00;0.62;0.00;0.00;0.62;8.70;7.80;;;24.80;35.40;;;;;;2267424;61;20440;-59
2022/06/06 07:45:41;0.00;0.00;0.62;0.00;0.00;0.62;7.57;6.87;;;24.80;35.40;;;;;;2268533;61;20359;-58
2022/06/06 07:48:42;0.00;0.00;0.62;0.00;0.00;0.62;8.57;7.77;;;24.80;35.30;;;;;;2268581;61;20895;-55
2022/06/06 07:51:40;0.00;0.00;0.62;0.00;0.00;0.62;7.60;6.70;;;24.80;35.30;;;;;;2267088;61;20909;-57
2022/06/06 07:54:42;0.00;0.00;0.62;0.00;0.00;0.62;7.93;7.13;;;24.80;35.40;;;;;;2268500;61;20444;-52
2022/06/06 07:57:36;0.00;0.00;0.62;0.00;0.00;0.62;8.00;7.20;;;24.80;35.40;;;;;;2267330;61;20972;-52
2022/06/06 08:00:28;0.00;0.00;0.62;0.00;0.00;0.62;9.03;8.13;;;24.80;35.40;;;;;;2268205;61;20367;-62
2022/06/06 08:03:19;0.00;0.00;0.62;0.00;0.00;0.62;8.73;7.93;;;24.90;35.50;;;;;;2268227;61;20405;-57
2022/06/06 08:06:26;0.00;0.00;0.62;0.00;0.00;0.62;10.33;9.20;;;24.90;35.40;;;;;;2267587;61;20418;-55
2022/06/06 08:09:53;0.00;0.00;0.62;0.00;0.00;0.62;9.80;8.90;;;24.90;35.30;;;;;;2268537;61;20393;-61
2022/06/06 08:13:02;0.00;0.00;0.62;0.00;0.00;0.62;10.60;9.53;;;24.90;35.20;;;;;;2267021;61;20436;-61
2022/06/06 08:16:07;0.00;0.00;0.62;0.00;0.00;0.62;10.30;9.17;;;25.00;35.30;;;;;;2511690;52;20378;-60
2022/06/06 08:19:34;0.00;0.00;0.62;0.00;0.00;0.62;8.77;7.87;;;25.00;35.30;;;;;;2271940;60;20810;-55
2022/06/06 08:22:20;0.00;0.00;0.62;0.00;0.00;0.62;8.33;7.47;;;25.00;35.10;;;;;;2271999;61;20359;-53
2022/06/06 08:25:07;0.00;0.00;0.62;0.00;0.00;0.62;9.93;9.03;;;25.00;35.00;;;;;;2272601;60;20362;-60
2022/06/06 08:27:56;0.00;0.00;0.62;0.00;0.00;0.62;9.20;8.07;;;25.10;34.90;;;;;;2271146;60;20399;-56
2022/06/06 08:30:44;0.00;0.00;0.62;0.00;0.00;0.62;8.43;7.63;;;25.10;35.00;;;;;;2272318;61;20361;-54
2022/06/06 08:33:29;0.00;0.00;0.62;0.00;0.00;0.62;8.87;7.97;;;25.10;34.90;;;;;;2271910;60;20436;-52
2022/06/06 08:36:34;0.00;0.00;0.62;0.00;0.00;0.62;8.20;7.40;;;25.10;34.90;;;;;;2271791;61;20378;-56
2022/06/06 08:39:30;0.00;0.00;0.62;0.00;0.00;0.62;7.77;7.00;;;25.10;34.90;;;;;;2272306;60;20401;-59
2022/06/06 08:42:37;0.00;0.00;0.62;0.00;0.00;0.62;7.47;6.77;;;25.10;34.80;;;;;;2271004;60;20412;-59
2022/06/06 08:45:47;0.00;0.00;0.62;0.00;0.00;0.62;6.93;6.33;;;25.10;35.40;;;;;;2272153;61;20446;-55
2022/06/06 08:48:43;0.00;0.00;0.62;0.00;0.00;0.62;7.50;6.80;;;25.20;34.80;;;;;;2271578;61;20532;-57
2022/06/06 08:51:49;0.00;0.00;0.62;0.00;0.00;0.62;6.77;6.17;;;25.20;34.80;;;;;;2271776;61;20358;-53
2022/06/06 08:55:16;0.00;0.00;0.62;0.00;0.00;0.62;6.10;5.50;;;25.20;34.80;;;;;;2272429;61;20463;-58
2022/06/06 08:58:41;0.00;0.00;0.62;0.00;0.00;0.62;6.00;5.40;;;25.20;34.80;;;;;;2271448;61;20439;-56
2022/06/06 09:01:48;0.00;0.00;0.62;0.00;0.00;0.62;5.90;5.30;;;25.20;34.80;;;;;;2271757;61;20411;-57
2022/06/06 09:05:23;0.00;0.00;0.62;0.00;0.00;0.62;7.20;5.70;;;25.30;34.80;;;;;;2267392;61;20397;-57
2022/06/06 09:08:57;0.00;0.00;0.62;0.00;0.00;0.62;5.43;4.80;;;25.30;34.60;;;;;;2269118;61;20905;-54
2022/06/06 09:12:31;0.00;0.00;0.62;0.00;0.00;0.62;4.27;3.87;;;25.30;34.40;;;;;;2270873;60;20630;-54
2022/06/06 09:16:20;0.00;0.00;0.62;0.00;0.00;0.62;4.20;3.67;;;25.30;34.10;;;;;;2277779;60;20389;-54
2022/06/06 09:19:57;0.00;0.00;0.62;0.00;0.00;0.62;3.63;3.33;;;25.30;33.90;;;;;;2275873;60;20419;-52
2022/06/06 09:23:26;0.00;0.00;0.62;0.00;0.00;0.62;4.20;3.53;;;25.40;33.60;;;;;;2277123;60;20405;-57
2022/06/06 09:26:24;0.00;0.00;0.62;0.00;0.00;0.62;4.23;3.67;;;25.40;33.50;;;;;;2275009;60;20781;-52
2022/06/06 09:29:57;0.00;0.00;0.62;0.00;0.00;0.62;4.17;3.70;;;25.30;33.50;;;;;;2277188;60;20354;-53
2022/06/06 09:33:34;0.00;0.00;0.62;0.00;0.00;0.62;4.10;3.70;;;25.40;33.40;;;;;;2276147;60;20494;-53
2022/06/06 09:36:42;0.00;0.00;0.62;0.00;0.00;0.62;4.20;3.20;;;25.40;33.00;;;;;;2276905;60;20396;-50
2022/06/06 09:39:47;0.00;0.00;0.62;0.00;0.00;0.62;3.70;2.80;;;25.40;32.90;;;;;;2276917;60;20373;-55
2022/06/06 09:43:00;0.00;0.00;0.62;0.00;0.00;0.62;5.00;3.80;;;25.40;33.00;;;;;;2275765;60;20367;-60
2022/06/06 09:46:35;0.00;0.00;0.62;0.00;0.00;0.62;3.30;3.00;;;25.40;33.20;;;;;;2276929;60;20381;-50
2022/06/06 09:50:35;0.00;0.00;0.62;0.00;0.00;0.62;4.33;3.10;;;25.40;33.40;;;;;;2275874;60;20843;-63
2022/06/06 10:01:11;0.00;0.00;0.62;0.00;0.00;0.62;3.30;2.70;;;25.50;32.40;;;;;;2276258;60;20353;-58
2022/06/06 10:04:38;0.00;0.00;0.62;0.00;0.00;0.62;2.83;2.40;;;25.50;32.10;;;;;;2275708;60;20349;-51
2022/06/06 10:08:25;0.00;0.00;0.62;0.00;0.00;0.62;2.97;2.67;;;25.50;32.50;;;;;;2274974;60;20386;-55
2022/06/06 10:11:49;0.00;0.00;0.62;0.00;0.00;0.62;4.03;2.20;;;25.60;31.70;;;;;;2274450;60;20401;-54
2022/06/06 10:15:17;0.00;0.00;0.62;0.00;0.00;0.62;2.30;2.10;;;25.60;31.20;;;;;;2274310;60;20409;-57
2022/06/06 10:18:26;0.00;0.00;0.62;0.00;0.00;0.62;3.10;2.30;;;25.60;31.10;;;;;;2271748;61;20400;-49
2022/06/06 10:21:48;0.00;0.00;0.62;0.00;0.00;0.62;2.50;2.30;;;25.60;31.10;;;;;;2272187;61;20733;-50
2022/06/06 10:25:23;0.00;0.00;0.62;0.00;0.00;0.62;2.40;2.20;;;25.60;31.10;;;;;;2272259;60;20361;-52
2022/06/06 10:28:32;0.00;0.00;0.62;0.00;0.00;0.62;2.13;1.93;;;25.60;31.30;;;;;;2272447;61;20846;-61
2022/06/06 10:31:48;0.00;0.00;0.62;0.00;0.00;0.62;2.47;1.90;;;25.60;31.50;;;;;;2272609;61;20355;-60
2022/06/06 10:35:17;0.00;0.00;0.62;0.00;0.00;0.62;2.67;2.00;;;25.70;31.70;;;;;;2272150;61;20461;-54
2022/06/06 10:38:23;0.00;0.00;0.62;0.00;0.00;0.62;2.53;1.80;;;25.70;32.40;;;;;;2272586;61;20377;-58
2022/06/06 10:41:31;0.00;0.00;0.62;0.00;0.00;0.62;2.00;1.40;;;25.70;31.80;;;;;;2271031;61;20387;-51
2022/06/06 10:44:51;0.00;0.00;0.62;0.00;0.00;0.62;2.27;1.77;;;25.70;31.90;;;;;;2272737;61;20883;-60
2022/06/06 10:48:01;0.00;0.00;0.62;0.00;0.00;0.62;2.30;1.73;;;25.80;31.90;;;;;;2271319;61;20499;-54
2022/06/06 10:52:04;0.00;0.00;0.62;0.00;0.00;0.62;2.07;1.73;;;25.80;31.80;;;;;;2271955;61;20406;-52
2022/06/06 10:55:27;0.00;0.00;0.62;0.00;0.00;0.62;1.80;1.60;;;25.90;31.90;;;;;;2271665;61;20507;-59
2022/06/06 10:59:00;0.00;0.00;0.62;0.00;0.00;0.62;2.13;1.93;;;25.90;32.00;;;;;;2269014;60;20846;-59
2022/06/06 11:02:26;0.00;0.00;0.62;0.00;0.00;0.62;1.90;1.50;;;26.00;32.10;;;;;;2270739;61;20366;-55
2022/06/06 11:05:54;0.00;0.00;0.62;0.00;0.00;0.62;2.30;1.77;;;26.00;31.90;;;;;;2272598;61;20901;-53
2022/06/06 11:09:02;0.00;0.00;0.62;0.00;0.00;0.62;2.70;2.17;;;26.10;31.60;;;;;;2272016;61;20362;-54
2022/06/06 11:12:19;0.00;0.00;0.62;0.00;0.00;0.62;2.27;2.00;;;26.10;31.30;;;;;;2272106;61;20393;-52
2022/06/06 11:15:05;0.00;0.00;0.62;0.00;0.00;0.62;2.13;1.80;;;26.10;30.80;;;;;;2275600;60;20389;-54
2022/06/06 11:18:48;0.00;0.00;0.62;0.00;0.00;0.62;4.00;1.80;;;26.20;30.60;;;;;;2275260;60;20426;-48
2022/06/06 11:22:19;0.00;0.00;0.62;0.00;0.00;0.62;1.97;1.73;;;26.20;30.00;;;;;;2276139;60;20357;-54
2022/06/06 11:25:12;0.00;0.00;0.62;0.00;0.00;0.62;2.33;1.97;;;26.20;29.50;;;;;;2274834;60;20936;-51
2022/06/06 11:28:46;0.00;0.00;0.62;0.00;0.00;0.62;2.27;1.53;;;26.20;29.40;;;;;;2276402;60;20762;-53
2022/06/06 11:31:49;0.00;0.00;0.62;0.00;0.00;0.62;2.90;1.80;;;26.20;29.00;;;;;;2275449;60;20942;-51
2022/06/06 11:35:09;0.00;0.00;0.62;0.00;0.00;0.62;1.80;1.43;;;26.30;29.00;;;;;;2276420;60;20385;-51
2022/06/06 11:38:48;0.00;0.00;0.62;0.00;0.00;0.62;2.10;1.73;;;26.30;28.70;;;;;;2276437;60;20423;-54
2022/06/06 11:42:04;0.00;0.00;0.62;0.00;0.00;0.62;2.00;1.73;;;26.30;28.60;;;;;;2262800;61;20931;-48
2022/06/06 11:45:31;0.00;0.00;0.62;0.00;0.00;0.62;2.53;1.53;;;26.30;28.30;;;;;;2267229;60;20978;-54
2022/06/06 11:49:09;0.00;0.00;0.62;0.00;0.00;0.62;2.50;1.60;;;26.30;28.00;;;;;;2276094;60;20358;-48
2022/06/06 11:52:42;0.00;0.00;0.62;0.00;0.00;0.62;2.10;1.50;;;26.30;27.70;;;;;;2276106;60;20398;-47
2022/06/06 11:55:50;0.00;0.00;0.62;0.00;0.00;0.62;3.83;1.67;;;26.30;27.90;;;;;;2275970;60;20385;-52
2022/06/06 11:59:16;0.00;0.00;0.62;0.00;0.00;0.62;1.83;1.40;;;26.30;27.90;;;;;;2276353;60;20361;-52
2022/06/06 12:02:56;0.00;0.00;0.62;0.00;0.00;0.62;2.00;1.40;;;26.30;27.80;;;;;;2275190;60;20356;-50
2022/06/06 12:06:39;0.00;0.00;0.62;0.00;0.00;0.62;1.60;1.17;;;26.40;27.50;;;;;;2276390;60;20427;-53
2022/06/06 12:09:41;0.00;0.00;0.62;0.00;0.00;0.62;1.77;1.30;;;26.40;27.60;;;;;;2275567;60;20405;-50
2022/06/06 12:13:06;0.00;0.00;0.62;0.00;0.00;0.62;2.10;1.50;;;26.40;27.40;;;;;;2276343;60;20407;-50
2022/06/06 12:16:29;0.00;0.00;0.62;0.00;0.00;0.62;2.73;1.80;;;26.40;27.20;;;;;;2506264;53;20431;-55
2022/06/06 12:19:53;0.00;0.00;0.62;0.00;0.00;0.62;3.47;1.70;;;26.40;27.10;;;;;;2268239;61;20399;-50